Date,TemperatureHighF,TemperatureAvgF,TemperatureLowF,DewpointHighF,DewpointAvgF,DewpointLowF,HumidityHigh,HumidityAvg,HumidityLow,PressureMaxIn,PressureMinIn,WindSpeedMaxMPH,WindSpeedAvgMPH,GustSpeedMaxMPH,PrecipitationSumIn
2013-1-1,43,38,31,33,30,26,82,74,65,30.04,29.94,6,1,9,0.04
2013-1-2,33,30,24,22,20,16,76,65,54,30.24,30.11,8,4,14,0.00
2013-1-3,40,31,15,24,20,12,91,66,49,30.28,30.17,7,1,11,0.00
2013-1-4,39,35,31,26,23,21,70,62,55,30.25,30.15,13,7,18,0.00
2013-1-5,46,37,29,27,24,20,83,62,44,30.41,30.22,6,1,9,0.00
2013-1-6,43,40,31,33,30,27,85,69,62,30.17,30.06,9,2,14,0.00
2013-1-7,41,34,23,29,26,20,91,73,60,30.49,30.37,7,2,11,0.00
2013-1-8,56,42,29,37,32,26,91,68,46,30.44,30.37,10,3,15,0.00
2013-1-9,56,45,27,48,39,25,94,79,56,30.40,30.26,8,2,11,0.00
2013-1-10,55,47,36,36,33,29,75,58,45,30.62,30.50,6,1,9,0.00
2013-1-11,49,44,37,42,37,31,96,79,63,30.40,30.11,3,1,5,0.09
2013-1-12,55,46,40,53,45,39,100,96,89,30.20,30.10,2,0,4,0.00
2013-1-13,62,53,39,57,51,38,99,92,82,30.10,29.96,5,1,7,0.01
2013-1-14,53,46,38,49,40,36,91,78,69,30.33,30.10,12,5,20,0.14
2013-1-15,39,37,34,35,34,32,95,89,80,30.38,30.22,6,2,8,0.36
2013-1-16,39,36,32,38,35,32,100,96,94,30.08,29.86,8,2,12,0.50
2013-1-17,41,37,33,33,31,27,90,78,61,30.17,30.09,10,3,15,0.00
2013-1-18,39,31,22,20,17,15,84,58,41,30.52,30.39,12,4,18,0.00
2013-1-19,57,47,33,33,29,23,66,51,37,30.32,30.02,11,6,20,0.00
2013-1-20,52,46,36,35,23,12,66,41,28,30.08,29.87,17,9,28,0.00
2013-1-21,42,33,26,24,20,14,71,58,40,30.09,29.83,16,4,27,0.00
2013-1-22,20,16,12,2,0,-2,56,49,42,30.32,30.18,14,8,22,0.00
2013-1-23,23,20,11,8,3,1,65,49,41,30.38,30.20,11,4,15,0.00
2013-1-24,24,19,14,12,8,1,88,61,48,30.57,30.29,15,7,22,0.00
2013-1-25,21,18,12,17,12,6,88,77,59,30.50,30.10,4,1,9,0.00
2013-1-26,31,27,19,27,23,16,90,84,74,30.42,30.22,6,1,11,0.11
2013-1-27,37,29,14,24,20,9,84,68,59,30.63,30.48,3,1,6,0.02
2013-1-28,52,42,31,46,38,29,95,88,80,30.37,30.07,10,5,15,0.14
2013-1-29,72,62,50,59,54,47,91,75,62,30.13,29.96,7,2,12,0.00
2013-1-30,71,60,54,62,57,54,98,90,72,29.72,29.36,19,3,23,1.34
2013-1-31,38,34,28,29,22,16,72,63,56,29.90,29.50,22,14,30,0.18
2013-2-1,24,20,16,13,8,5,65,57,51,30.39,30.00,17,11,31,0.00
2013-2-2,28,23,13,20,15,7,84,70,57,30.38,30.05,6,2,9,0.00
2013-2-3,33,30,23,30,26,18,92,87,63,29.97,29.84,12,2,15,0.02
2013-2-4,37,31,22,24,19,13,71,60,51,30.12,29.93,8,2,12,0.00
2013-2-5,38,34,27,34,30,25,95,87,80,29.95,29.87,4,1,6,0.01
2013-2-6,41,36,30,31,28,25,81,73,64,30.37,30.09,11,5,15,0.00
2013-2-7,38,35,28,28,26,24,89,70,64,30.45,30.26,6,2,10,0.00
2013-2-8,41,36,31,38,32,24,94,86,69,30.03,29.82,15,5,23,0.05
2013-2-9,39,33,23,23,19,16,74,57,45,30.40,30.27,17,8,25,0.00
2013-2-10,43,37,18,24,22,15,91,56,43,30.49,30.26,6,3,11,0.00
2013-2-11,65,56,35,54,43,29,96,66,35,29.99,29.71,13,7,21,0.14
2013-2-12,57,48,34,33,29,24,73,48,34,30.00,29.85,11,4,16,0.00
2013-2-13,43,36,30,33,30,26,95,79,65,29.90,29.69,4,1,7,0.04
2013-2-14,48,40,28,35,30,26,90,70,54,30.04,29.96,7,2,11,0.14
2013-2-15,52,43,31,38,34,26,92,73,55,30.07,29.95,13,3,16,0.19
2013-2-16,36,33,28,28,24,17,85,69,59,30.02,29.91,9,6,14,0.00
2013-2-17,26,24,21,12,10,8,60,54,49,30.24,30.05,18,11,25,0.00
2013-2-18,44,35,19,21,16,8,63,47,36,30.42,30.17,7,3,11,0.00
2013-2-19,52,43,36,42,35,24,87,73,56,29.94,29.70,15,8,21,0.07
2013-2-20,33,28,23,18,15,11,63,57,51,30.20,30.01,17,10,28,0.00
2013-2-21,35,29,22,20,17,13,69,60,52,30.37,30.22,14,9,22,0.00
2013-2-22,32,30,27,27,24,19,86,79,68,30.38,30.22,5,3,12,0.01
2013-2-23,50,41,32,42,36,30,92,83,71,30.08,29.87,3,1,5,0.00
2013-2-24,48,40,31,34,28,20,88,62,47,30.16,29.88,19,10,24,0.00
2013-2-25,45,36,21,27,24,16,92,62,47,30.26,30.18,7,2,12,0.00
2013-2-26,39,36,28,38,33,25,100,89,74,30.20,29.74,7,3,12,0.75
2013-2-27,51,45,36,44,37,33,97,73,60,29.72,29.64,15,6,20,0.01
2013-2-28,42,39,38,31,30,28,74,68,61,29.77,29.67,13,8,17,0.00
2013-3-1,38,36,32,30,27,23,76,69,62,29.94,29.85,10,6,14,0.00
2013-3-2,34,30,28,24,22,19,74,69,63,29.95,29.86,11,7,16,0.00
2013-3-3,37,32,28,23,20,17,72,61,54,29.97,29.87,15,10,23,0.00
2013-3-4,40,34,25,21,19,14,62,53,44,30.08,30.00,16,9,24,0.00
2013-3-5,50,44,34,29,24,21,60,44,36,30.10,29.84,8,3,15,0.00
2013-3-6,38,35,32,33,32,30,96,87,74,30.06,29.73,20,11,29,0.53
2013-3-7,41,39,37,30,29,28,74,66,61,30.22,30.15,12,8,18,0.00
2013-3-8,42,38,34,32,29,26,77,71,67,30.36,30.23,18,12,23,0.00
2013-3-9,59,46,33,34,30,26,82,55,31,30.42,30.28,8,2,10,0.00
2013-3-10,62,53,27,38,33,24,89,49,36,30.33,30.19,7,3,13,0.00
2013-3-11,56,52,42,49,41,34,82,67,46,30.13,29.92,8,3,16,0.00
2013-3-12,53,47,40,51,40,31,95,77,63,29.97,29.76,16,10,23,0.66
2013-3-13,45,38,31,32,27,20,87,65,49,30.10,29.94,18,9,26,0.00
2013-3-14,42,36,28,24,20,17,63,53,47,30.19,30.09,18,12,26,0.00
2013-3-15,57,47,27,40,31,19,72,54,44,30.09,29.81,14,5,18,0.00
2013-3-16,55,45,38,45,40,34,89,81,68,29.89,29.64,7,2,11,0.03
2013-3-17,37,36,34,34,30,26,93,79,65,30.26,30.10,6,3,10,0.00
2013-3-18,32,31,29,31,29,28,96,94,91,30.32,29.96,6,2,8,0.25
2013-3-19,55,45,32,43,30,17,97,60,30,29.92,29.76,20,9,28,0.26
2013-3-20,49,43,32,28,22,16,69,43,34,30.01,29.78,15,9,22,0.00
2013-3-21,32,29,24,19,15,12,74,57,49,29.92,29.82,15,10,22,0.00
2013-3-22,44,37,26,25,21,16,76,52,44,30.02,29.93,14,8,24,0.00
2013-3-23,52,44,20,28,26,17,88,50,37,30.07,29.94,11,6,15,0.00
2013-3-24,35,32,31,30,30,28,94,91,77,29.77,29.71,1,0,2,0.00
2013-3-25,39,34,31,35,32,30,96,92,78,29.70,29.56,4,1,7,0.58
2013-3-26,45,40,34,35,30,28,85,68,58,30.03,29.86,14,9,20,0.05
2013-3-27,45,40,34,36,30,26,86,68,58,30.16,30.09,15,9,23,0.00
2013-3-28,45,42,38,34,31,29,72,66,62,30.26,30.15,14,8,20,0.00
2013-3-29,54,47,36,35,32,27,81,56,42,30.29,30.17,11,5,18,0.00
2013-3-30,59,52,34,34,31,28,84,47,34,30.27,30.11,8,2,14,0.00
2013-3-31,49,46,41,47,44,38,96,92,89,29.94,29.77,4,1,7,0.16
2013-4-1,57,48,40,47,37,25,81,65,54,29.97,29.78,19,10,28,0.01
2013-4-2,45,40,32,22,19,16,59,43,36,30.19,30.09,14,9,22,0.00
2013-4-3,48,42,26,24,20,17,73,43,32,30.39,30.24,15,9,24,0.00
2013-4-4,48,40,20,24,20,16,84,47,31,30.43,30.14,6,3,13,0.00
2013-4-5,63,52,32,41,33,27,95,52,34,30.04,29.86,14,8,20,0.01
2013-4-6,56,49,37,31,26,22,64,41,31,30.34,30.22,6,3,10,0.00
2013-4-7,72,61,39,48,44,31,73,54,42,30.18,29.96,12,6,17,0.00
2013-4-8,79,71,56,54,50,46,70,49,37,30.08,29.91,8,4,15,0.00
2013-4-9,84,75,54,61,57,48,83,55,42,30.08,29.92,8,3,13,0.00
2013-4-10,89,83,69,64,61,58,69,49,40,29.96,29.76,12,5,18,0.00
2013-4-11,84,78,62,65,61,57,92,56,48,29.88,29.69,6,2,10,0.00
2013-4-12,77,63,53,66,58,44,98,86,53,29.70,29.55,8,2,16,0.44
2013-4-13,69,61,50,46,40,32,64,47,32,29.94,29.82,14,7,20,0.00
2013-4-14,66,58,43,46,42,36,75,54,44,30.16,30.06,8,3,16,0.00
2013-4-15,64,59,53,53,51,44,86,73,66,30.26,30.18,6,3,11,0.00
2013-4-16,75,69,57,64,60,54,90,74,65,30.27,30.08,7,4,12,0.00
2013-4-17,71,67,58,66,62,57,98,84,75,30.21,30.15,5,2,9,0.32
2013-4-18,74,68,60,65,61,58,93,78,65,30.18,29.97,9,4,15,0.00
2013-4-19,74,67,54,65,61,48,95,82,68,29.82,29.57,13,6,20,0.60
2013-4-20,58,52,44,39,34,29,61,50,41,30.31,30.04,14,9,20,0.00
2013-4-21,53,47,31,34,30,25,80,53,44,30.62,30.52,6,3,13,0.00
2013-4-22,57,50,36,41,37,33,92,61,49,30.59,30.40,6,4,12,0.00
2013-4-23,59,52,40,48,44,38,91,74,63,30.35,30.14,5,2,16,0.00
2013-4-24,78,65,36,60,54,35,97,71,48,30.06,29.76,15,4,22,0.00
2013-4-25,65,56,44,44,38,32,71,51,37,30.30,30.18,9,3,14,0.00
2013-4-26,64,60,52,46,42,39,61,52,45,30.49,30.35,5,2,10,0.00
2013-4-27,70,65,52,50,46,42,73,52,42,30.43,30.26,6,2,11,0.00
2013-4-28,56,53,51,49,48,45,92,83,66,30.25,30.14,6,2,10,0.13
2013-4-29,61,58,53,57,55,52,96,92,88,30.11,30.03,5,2,8,0.03
2013-4-30,60,57,54,58,55,53,100,93,89,30.28,30.19,6,2,11,0.03
2013-5-1,70,64,57,50,46,41,75,53,41,30.41,30.35,5,2,9,0.00
2013-5-31,77,76,75,67,67,66,76,74,72,30.01,30.00,0,0,3,0.00
2013-6-1,70,70,70,66,66,66,90,90,90,30.01,30.01,0,0,0,0.00